Flight Track Log - Related Links

Times and Time Zones

All times are in EDT time to prevent confusion due to time zone crossing. See the JBU24 flight status page for this flight to view local times or setup timezone preferences in your user account.

Time Position Orientation Groundspeed Altitude Reporting Facility
EDT Latitude Longitude Course Direction KTS MPH feet Rate Location/Type
Mon 05:16:54 PM 40.6333 -73.7500 323° Northwest 168 193 1,900  Level New York TRACON
Mon 05:17:54 PM 40.6333 -73.6667 90° East 217 250 4,700 3,100 Climbing New York TRACON
Mon 05:18:54 PM 40.6667 -73.6000 57° Northeast 235 270 8,100 3,100 Climbing New York TRACON
Mon 05:19:00 PM 40.8815 -74.1138 311° West  Level FlightAware Approximate
Mon 05:19:54 PM 40.7167 -73.5500 37° Northeast 242 278 10,900  Level New York TRACON
Mon 05:20:00 PM 40.9437 -74.2014 316° Northwest  Level FlightAware Approximate
Mon 05:21:00 PM 41.0090 -74.2853 316° Northwest  Level FlightAware Approximate
Mon 05:21:54 PM 40.8833 -73.5000 13° North 370 426 14,500  Level New York TRACON
Mon 05:22:00 PM 41.0714 -74.3714 323° Northwest  Level FlightAware Approximate
Mon 05:22:54 PM 40.9667 -73.5667 329° Northwest 380 437 16,900  Level New York TRACON
Mon 05:24:00 PM 41.0042 -73.6091 320° Northwest  Level Estimated
Mon 05:24:54 PM 41.0333 -73.8500 320° Northwest 409 471 17,000  Level New York TRACON
Mon 05:26:00 PM 41.0716 -73.8898 322° Northwest  Level Estimated
Mon 05:26:54 PM 41.1136 -74.1364 322° Northwest 406 467 17,000  Level New York Center
Mon 05:28:00 PM 41.1591 -74.1795 324° Northwest  Level Estimated
Mon 05:29:55 PM 41.2181 -74.5389 324° Northwest 401 461 20,600  Level New York Center
Mon 05:30:53 PM 41.2789 -74.6581 304° West 392 451 22,000 464 Climbing New York Center
Mon 05:32:56 PM 41.4225 -74.9017 308° West 413 475 22,000  Level New York Center
Mon 05:34:53 PM 41.5661 -75.1350 309° West 413 475 22,000  Level New York Center
Mon 05:35:00 PM 41.4481 -74.4555 324° Northwest  Level Estimated
Mon 05:36:00 PM 41.6008 -75.1950 308° West  Level FlightAware Approximate
Mon 05:37:54 PM 41.7775 -75.4881 308° West 413 475 22,000  Level New York Center
Mon 05:39:00 PM 41.8292 -75.5918 304° West  Level FlightAware Approximate
Mon 05:39:53 PM 41.9178 -75.7267 304° West 413 475 22,000  Level New York Center
Mon 05:40:55 PM 41.9836 -75.8433 307° West 408 470 19,900 -2,361 Descending New York Center
Mon 05:41:55 PM 42.0517 -75.9572 309° West 402 463 17,200 -1,916 Descending New York Center
Mon 05:42:54 PM 42.1175 -76.0686 309° West 397 457 16,100 -515 Descending New York Center
Mon 05:43:00 PM 41.8177 -75.5726 308° West  Level FlightAware Approximate
Mon 05:44:00 PM 42.1846 -76.1290 North  Level FlightAware Approximate
Mon 05:45:48 PM 42.4203 -76.1108 348° North 378 435 15,200  Level Boston Center
Mon 05:46:43 PM 42.5164 -76.0994 North 379 436 12,400 -2,529 Descending Boston Center
Mon 05:47:49 PM 42.6231 -76.0889 North 362 417 10,100 -1,984 Descending Boston Center
Mon 05:48:50 PM 42.7156 -76.0689 North 285 328 8,200 -2,016 Descending Boston Center
Mon 05:49:51 PM 42.7933 -76.0508 10° North 282 325 6,000 -1,930 Descending Boston Center
Mon 05:50:45 PM 42.8625 -76.0406 North 278 320 4,500 -1,043 Descending Boston Center
Mon 05:51:00 PM 42.7585 -76.0929 348° North  Level FlightAware Approximate
Mon 05:51:46 PM 42.9339 -76.0250 North 253 291 4,000  Level Boston Center
Mon 05:53:00 PM 43.0325 -76.0701 North  Level Estimated
Mon 05:54:54 PM 43.0808 -76.0592 124° Southeast 143 165 1,200  Level Boston Center
Mon 06:00:00 PM 43.1000 -76.1000 124° Southeast  Level FlightAware Approximate

Login

Don't have an account? Register now (free) for customized features, flight alerts, and more!